createdAt,value
2023-02-17T00:01:12.406Z,9.48
2023-02-17T00:03:39.646Z,9.47
2023-02-17T00:06:08.874Z,9.43
2023-02-17T00:08:35.775Z,9.41
2023-02-17T00:11:02.656Z,9.13
2023-02-17T00:13:29.512Z,8.96
2023-02-17T00:15:56.450Z,8.85
2023-02-17T00:18:23.746Z,8.91
2023-02-17T00:20:50.545Z,8.77
2023-02-17T00:23:17.761Z,8.78
2023-02-17T00:25:44.572Z,8.69
2023-02-17T00:28:11.312Z,8.77
2023-02-17T00:30:39.397Z,8.72
2023-02-17T00:33:06.536Z,8.88
2023-02-17T00:35:33.458Z,8.87
2023-02-17T00:38:00.261Z,8.75
2023-02-17T00:40:27.146Z,8.71
2023-02-17T00:42:54.966Z,8.51
2023-02-17T00:45:21.957Z,8.32
2023-02-17T00:47:48.925Z,8.15
2023-02-17T00:50:17.098Z,8.05
2023-02-17T00:52:43.931Z,8.11
2023-02-17T00:55:10.732Z,8.07
2023-02-17T00:57:37.619Z,7.88
2023-02-17T01:00:05.118Z,7.67
2023-02-17T01:02:34.369Z,7.68
2023-02-17T01:05:01.211Z,7.63
2023-02-17T01:07:28.050Z,7.67
2023-02-17T01:09:54.799Z,7.67
2023-02-17T01:12:22.103Z,7.84
2023-02-17T01:14:49.115Z,7.85
2023-02-17T01:17:15.953Z,7.96
2023-02-17T01:19:54.449Z,7.98
2023-02-17T01:22:28.758Z,7.99
2023-02-17T01:24:55.600Z,8.03
2023-02-17T01:27:22.302Z,8.17
2023-02-17T01:29:49.222Z,8.26
2023-02-17T01:32:16.124Z,8.21
2023-02-17T01:34:42.859Z,8.28
2023-02-17T01:37:09.557Z,8.25
2023-02-17T01:39:36.451Z,8.25
2023-02-17T01:42:03.189Z,8.11
2023-02-17T01:44:32.959Z,7.95
2023-02-17T01:46:59.776Z,7.76
2023-02-17T01:49:35.727Z,7.93
2023-02-17T01:52:16.817Z,7.86
2023-02-17T01:54:55.241Z,7.69
2023-02-17T01:57:25.807Z,7.60
2023-02-17T01:59:54.011Z,7.64
2023-02-17T02:02:20.935Z,7.65
2023-02-17T02:04:51.434Z,7.68
2023-02-17T02:07:22.526Z,7.65
2023-02-17T02:09:56.067Z,7.73
2023-02-17T02:12:26.251Z,7.85
2023-02-17T02:14:56.636Z,7.90
2023-02-17T02:18:00.359Z,7.88
2023-02-17T02:20:42.194Z,7.96
2023-02-17T02:23:33.457Z,8.00
2023-02-17T02:26:31.257Z,7.95
2023-02-17T02:29:26.047Z,7.95
2023-02-17T02:32:02.091Z,7.98
2023-02-17T02:35:01.026Z,8.07
2023-02-17T02:37:35.276Z,8.04
2023-02-17T02:40:06.727Z,7.99
2023-02-17T02:42:35.308Z,7.95
2023-02-17T02:45:02.489Z,7.72
2023-02-17T02:47:46.843Z,7.55
2023-02-17T02:50:26.239Z,7.49
2023-02-17T02:53:19.554Z,7.56
2023-02-17T02:56:01.374Z,7.67
2023-02-17T02:59:08.357Z,7.71
2023-02-17T03:01:46.070Z,7.74
2023-02-17T03:04:36.473Z,7.79
2023-02-17T03:07:23.019Z,7.86
2023-02-17T03:09:56.550Z,7.94
2023-02-17T03:12:24.022Z,7.98
2023-02-17T03:14:54.806Z,8.01
2023-02-17T03:17:22.839Z,8.00
2023-02-17T03:19:51.003Z,8.07
2023-02-17T03:22:31.599Z,8.07
2023-02-17T03:25:00.173Z,8.01
2023-02-17T03:27:28.066Z,8.07
2023-02-17T03:29:55.233Z,8.04
2023-02-17T03:32:22.397Z,7.85
2023-02-17T03:34:49.229Z,7.69
2023-02-17T03:37:16.021Z,7.70
2023-02-17T03:39:42.761Z,7.66
2023-02-17T03:42:09.555Z,7.65
2023-02-17T03:44:36.365Z,7.53
2023-02-17T03:47:03.191Z,7.52
2023-02-17T03:49:30.102Z,7.47
2023-02-17T03:51:58.272Z,7.31
2023-02-17T03:54:25.833Z,7.21
2023-02-17T03:56:52.613Z,7.20
2023-02-17T03:59:19.437Z,7.07
2023-02-17T04:01:46.241Z,7.03
2023-02-17T04:04:13.149Z,6.99
2023-02-17T04:06:39.950Z,6.98
2023-02-17T04:09:06.660Z,6.87
2023-02-17T04:11:33.393Z,6.93
2023-02-17T04:14:00.198Z,6.96
2023-02-17T04:16:26.998Z,6.95
2023-02-17T04:18:53.820Z,6.94
2023-02-17T04:21:20.612Z,6.96
2023-02-17T04:23:47.423Z,6.91
2023-02-17T04:26:14.204Z,6.87
2023-02-17T04:28:42.837Z,6.79
2023-02-17T04:31:10.083Z,6.87
2023-02-17T04:33:38.036Z,6.80
2023-02-17T04:36:06.134Z,6.85
2023-02-17T04:38:33.623Z,6.78
2023-02-17T04:41:01.115Z,6.77
2023-02-17T04:43:28.188Z,6.62
2023-02-17T04:45:55.423Z,6.75
2023-02-17T04:48:22.794Z,6.67
2023-02-17T04:50:49.861Z,6.78
2023-02-17T04:53:16.760Z,6.87
2023-02-17T04:55:43.836Z,6.95
2023-02-17T04:58:10.866Z,6.98
2023-02-17T05:00:37.808Z,7.02
2023-02-17T05:03:04.608Z,7.07
2023-02-17T05:05:31.452Z,7.07
2023-02-17T05:07:58.338Z,7.16
2023-02-17T05:10:25.057Z,7.11
2023-02-17T05:12:52.480Z,7.04
2023-02-17T05:15:19.532Z,7.05
2023-02-17T05:17:46.776Z,7.12
2023-02-17T05:20:13.709Z,7.13
2023-02-17T05:22:40.445Z,7.06
2023-02-17T05:25:07.739Z,7.14
2023-02-17T05:27:34.894Z,7.15
2023-02-17T05:30:01.951Z,7.09
2023-02-17T05:32:28.771Z,7.11
2023-02-17T05:34:55.578Z,7.06
2023-02-17T05:37:22.304Z,7.10
2023-02-17T05:39:49.036Z,7.06
2023-02-17T05:42:15.872Z,7.01
2023-02-17T05:44:42.648Z,7.04
2023-02-17T05:47:09.512Z,7.01
2023-02-17T05:49:36.254Z,6.98
2023-02-17T05:52:03.162Z,6.97
2023-02-17T05:54:29.964Z,6.80
2023-02-17T05:56:56.713Z,6.67
2023-02-17T05:59:23.711Z,6.67
2023-02-17T06:01:50.454Z,6.57
2023-02-17T06:04:17.361Z,6.70
2023-02-17T06:06:44.192Z,6.68
2023-02-17T06:09:10.972Z,6.45
2023-02-17T06:11:37.758Z,6.61
2023-02-17T06:14:04.636Z,6.48
2023-02-17T06:16:31.493Z,6.60
2023-02-17T06:19:00.125Z,6.57
2023-02-17T06:21:26.882Z,6.71
2023-02-17T06:23:53.654Z,6.68
2023-02-17T06:26:20.516Z,6.65
2023-02-17T06:28:47.314Z,6.56
2023-02-17T06:31:14.176Z,6.51
2023-02-17T06:33:41.004Z,6.49
2023-02-17T06:36:08.582Z,6.42
2023-02-17T06:38:35.508Z,6.50
2023-02-17T06:41:02.477Z,6.37
2023-02-17T06:43:29.201Z,6.43
2023-02-17T06:45:55.988Z,6.37
2023-02-17T06:48:22.970Z,6.35
2023-02-17T06:50:52.029Z,6.33
2023-02-17T06:53:18.828Z,6.43
2023-02-17T06:55:45.606Z,6.36
2023-02-17T06:58:12.347Z,6.51
2023-02-17T07:00:39.088Z,6.47
2023-02-17T07:03:05.881Z,6.58
2023-02-17T07:05:36.223Z,6.39
2023-02-17T07:08:07.499Z,6.53
2023-02-17T07:10:34.327Z,6.57
2023-02-17T07:13:01.090Z,6.71
2023-02-17T07:15:27.986Z,6.88
2023-02-17T07:17:54.780Z,6.88
2023-02-17T07:20:21.660Z,7.04
2023-02-17T07:22:48.438Z,7.04
2023-02-17T07:25:15.273Z,6.89
2023-02-17T07:27:42.100Z,7.01
2023-02-17T07:30:09.465Z,7.02
2023-02-17T07:32:36.204Z,6.95
2023-02-17T07:35:02.985Z,7.09
2023-02-17T07:37:29.793Z,7.30
2023-02-17T07:39:57.336Z,7.48
2023-02-17T07:42:24.381Z,7.64
2023-02-17T07:44:51.743Z,7.69
2023-02-17T07:47:18.632Z,7.82
2023-02-17T07:49:45.413Z,7.89
2023-02-17T07:52:12.289Z,8.02
2023-02-17T07:54:38.979Z,8.10
2023-02-17T07:57:05.680Z,8.19
2023-02-17T07:59:32.401Z,8.27
2023-02-17T08:01:59.179Z,8.30
2023-02-17T08:04:26.080Z,8.51
2023-02-17T08:06:52.836Z,8.64
2023-02-17T08:09:37.891Z,8.90
2023-02-17T08:12:23.266Z,9.24
2023-02-17T08:14:50.043Z,9.30
2023-02-17T08:17:16.806Z,9.37
2023-02-17T08:19:48.339Z,9.38
2023-02-17T08:22:17.665Z,9.54
2023-02-17T08:24:44.913Z,9.78
2023-02-17T08:27:12.122Z,9.86
2023-02-17T08:29:38.868Z,9.94
2023-02-17T08:32:05.829Z,10.05
2023-02-17T08:34:35.918Z,10.27
2023-02-17T08:37:04.910Z,10.38
2023-02-17T08:39:33.031Z,10.33
2023-02-17T08:42:00.308Z,10.34
2023-02-17T08:44:27.409Z,10.26
2023-02-17T08:46:54.188Z,10.19
2023-02-17T08:49:23.853Z,10.23
2023-02-17T08:51:51.385Z,10.21
2023-02-17T08:54:19.058Z,10.17
2023-02-17T08:56:45.913Z,10.50
2023-02-17T08:59:13.090Z,10.43
2023-02-17T09:01:41.608Z,10.49
2023-02-17T09:04:09.910Z,10.35
2023-02-17T09:06:41.092Z,10.17
2023-02-17T09:09:10.073Z,10.02
2023-02-17T09:11:37.625Z,9.87
2023-02-17T09:14:05.702Z,10.07
2023-02-17T09:16:32.591Z,10.11
2023-02-17T09:18:59.565Z,10.20
2023-02-17T09:21:26.735Z,10.29
2023-02-17T09:23:56.517Z,10.44
2023-02-17T09:26:23.579Z,10.63
2023-02-17T09:28:50.622Z,10.55
2023-02-17T09:31:24.546Z,10.61
2023-02-17T09:33:51.743Z,10.58
2023-02-17T09:36:21.835Z,10.74
2023-02-17T09:38:49.486Z,10.70
2023-02-17T09:41:35.140Z,10.91
2023-02-17T09:44:02.420Z,10.95
2023-02-17T09:46:59.518Z,11.20
2023-02-17T09:49:36.528Z,11.27
2023-02-17T09:52:06.143Z,11.46
2023-02-17T09:55:30.656Z,11.58
2023-02-17T09:58:06.916Z,11.81
2023-02-17T10:00:40.487Z,11.93
2023-02-17T10:03:31.190Z,11.98
2023-02-17T10:06:09.193Z,12.24
2023-02-17T10:08:49.010Z,12.36
2023-02-17T10:11:36.381Z,12.42
2023-02-17T10:14:09.909Z,12.49
2023-02-17T10:16:44.258Z,12.60
2023-02-17T10:19:17.360Z,12.75
2023-02-17T10:21:51.204Z,12.97
2023-02-17T10:24:18.045Z,13.17
2023-02-17T10:26:58.966Z,13.40
2023-02-17T10:29:50.145Z,13.34
2023-02-17T10:32:25.869Z,13.13
2023-02-17T10:35:27.346Z,13.33
2023-02-17T10:38:14.597Z,13.50
2023-02-17T10:40:45.035Z,13.62
2023-02-17T10:43:24.905Z,13.85
2023-02-17T10:45:51.879Z,13.91
2023-02-17T10:48:24.774Z,14.05
2023-02-17T10:50:52.455Z,14.09
2023-02-17T10:53:26.135Z,14.25
2023-02-17T10:56:10.862Z,14.44
2023-02-17T10:59:04.315Z,14.54
2023-02-17T11:01:31.251Z,14.60
2023-02-17T11:04:13.810Z,14.73
2023-02-17T11:06:50.057Z,14.82
2023-02-17T11:09:29.490Z,15.06
2023-02-17T11:12:15.400Z,15.04
2023-02-17T11:14:48.619Z,14.97
2023-02-17T11:17:35.362Z,15.05
2023-02-17T11:20:07.321Z,15.21
2023-02-17T11:22:36.270Z,15.36
2023-02-17T11:25:07.501Z,15.53
2023-02-17T11:27:34.315Z,15.48
2023-02-17T11:30:14.849Z,15.43
2023-02-17T11:32:41.629Z,15.61
2023-02-17T11:35:22.786Z,15.78
2023-02-17T11:37:49.540Z,15.99
2023-02-17T11:40:27.890Z,16.05
2023-02-17T11:43:03.423Z,16.12
2023-02-17T11:45:51.002Z,16.27
2023-02-17T11:49:00.614Z,16.53
2023-02-17T11:51:52.436Z,16.68
2023-02-17T11:54:47.038Z,16.72
2023-02-17T11:57:38.501Z,16.87
2023-02-17T12:00:11.061Z,16.89
2023-02-17T12:03:21.585Z,17.09
2023-02-17T12:06:00.143Z,17.14
2023-02-17T12:08:51.702Z,17.25
2023-02-17T12:11:21.353Z,17.40
2023-02-17T12:14:00.169Z,17.56
2023-02-17T12:17:14.773Z,17.71
2023-02-17T12:19:44.125Z,17.81
2023-02-17T12:22:29.964Z,17.82
2023-02-17T12:24:56.743Z,17.88
2023-02-17T12:27:49.476Z,17.92
2023-02-17T12:30:35.008Z,17.97
2023-02-17T12:33:53.005Z,17.88
2023-02-17T12:36:23.602Z,17.69
2023-02-17T12:38:56.149Z,17.65
2023-02-17T12:41:27.570Z,17.71
2023-02-17T12:43:59.955Z,17.56
2023-02-17T12:46:38.760Z,17.54
2023-02-17T12:49:42.350Z,17.60
2023-02-17T12:52:29.870Z,17.64
2023-02-17T12:55:19.880Z,17.70
2023-02-17T12:57:55.880Z,17.69
2023-02-17T13:00:29.193Z,17.79
2023-02-17T13:03:00.137Z,17.77
2023-02-17T13:05:37.284Z,17.82
2023-02-17T13:08:16.135Z,17.77
2023-02-17T13:10:43.052Z,17.72
2023-02-17T13:13:09.768Z,17.69
2023-02-17T13:15:38.472Z,17.72
2023-02-17T13:18:11.461Z,17.71
2023-02-17T13:20:45.704Z,17.67
2023-02-17T13:23:25.905Z,17.70
2023-02-17T13:26:22.692Z,17.70
2023-02-17T13:28:51.628Z,17.64
2023-02-17T13:31:22.194Z,17.60
2023-02-17T13:33:50.724Z,17.70
2023-02-17T13:36:28.161Z,17.77
2023-02-17T13:39:04.555Z,17.80
2023-02-17T13:41:49.636Z,17.87
2023-02-17T13:44:40.681Z,17.97
2023-02-17T13:47:17.736Z,18.03
2023-02-17T13:49:52.689Z,18.08
2023-02-17T13:52:24.781Z,18.10
2023-02-17T13:54:56.600Z,18.09
2023-02-17T13:57:25.478Z,18.17
2023-02-17T13:59:52.204Z,18.17
2023-02-17T14:02:35.405Z,18.16
2023-02-17T14:05:16.821Z,18.16
2023-02-17T14:07:47.478Z,18.16
2023-02-17T14:10:25.736Z,18.23
2023-02-17T14:12:53.590Z,18.28
2023-02-17T14:15:27.228Z,18.30
2023-02-17T14:17:54.712Z,18.31
2023-02-17T14:20:33.737Z,18.21
2023-02-17T14:23:12.779Z,18.23
2023-02-17T14:25:46.533Z,18.27
2023-02-17T14:28:27.972Z,18.28
2023-02-17T14:30:54.950Z,18.32
2023-02-17T14:33:25.016Z,18.37
2023-02-17T14:36:00.641Z,18.37
2023-02-17T14:38:29.255Z,18.37
2023-02-17T14:40:56.100Z,18.39
2023-02-17T14:43:23.180Z,18.27
2023-02-17T14:45:50.782Z,18.21
2023-02-17T14:48:18.175Z,18.27
2023-02-17T14:50:45.682Z,18.20
2023-02-17T14:53:18.357Z,18.25
2023-02-17T14:55:50.631Z,18.13
2023-02-17T14:58:29.050Z,18.02
2023-02-17T15:00:56.521Z,18.10
2023-02-17T15:03:23.419Z,18.09
2023-02-17T15:05:50.581Z,18.07
2023-02-17T15:08:21.342Z,18.07
2023-02-17T15:10:49.191Z,18.05
2023-02-17T15:13:20.905Z,18.03
2023-02-17T15:15:49.414Z,18.05
2023-02-17T15:18:18.692Z,18.04
2023-02-17T15:20:49.614Z,18.02
2023-02-17T15:23:22.501Z,18.01
2023-02-17T15:25:50.060Z,17.98
2023-02-17T15:28:19.796Z,17.97
2023-02-17T15:30:51.407Z,18.00
2023-02-17T15:33:18.710Z,17.99
2023-02-17T15:35:53.680Z,18.03
2023-02-17T15:38:21.010Z,18.00
2023-02-17T15:40:48.028Z,17.96
2023-02-17T15:43:22.658Z,18.00
2023-02-17T15:45:49.688Z,17.98
2023-02-17T15:48:26.306Z,17.99
2023-02-17T15:50:54.049Z,17.97
2023-02-17T15:53:20.858Z,18.00
2023-02-17T15:55:48.567Z,18.04
2023-02-17T15:58:21.242Z,18.00
2023-02-17T16:00:52.013Z,18.04
2023-02-17T16:03:18.944Z,18.06
2023-02-17T16:05:45.943Z,17.96
2023-02-17T16:08:12.737Z,17.94
2023-02-17T16:10:42.441Z,17.98
2023-02-17T16:13:14.413Z,17.98
2023-02-17T16:15:42.689Z,17.93
2023-02-17T16:18:27.494Z,17.94
2023-02-17T16:20:54.201Z,17.92
2023-02-17T16:23:21.124Z,17.90
2023-02-17T16:25:50.180Z,17.94
2023-02-17T16:28:22.041Z,17.93
2023-02-17T16:30:50.990Z,17.90
2023-02-17T16:33:18.925Z,17.88
2023-02-17T16:35:45.777Z,17.87
2023-02-17T16:38:22.597Z,17.83
2023-02-17T16:40:52.248Z,17.80
2023-02-17T16:43:22.301Z,17.71
2023-02-17T16:45:56.549Z,17.65
2023-02-17T16:48:25.795Z,17.59
2023-02-17T16:50:52.683Z,17.60
2023-02-17T16:53:19.838Z,17.52
2023-02-17T16:55:46.678Z,17.47
2023-02-17T16:58:16.967Z,17.44
2023-02-17T17:00:46.483Z,17.34
2023-02-17T17:03:13.655Z,17.33
2023-02-17T17:05:41.241Z,17.25
2023-02-17T17:08:11.262Z,17.17
2023-02-17T17:10:40.561Z,17.09
2023-02-17T17:13:07.532Z,17.05
2023-02-17T17:15:41.218Z,16.96
2023-02-17T17:18:09.526Z,16.89
2023-02-17T17:20:41.645Z,16.81
2023-02-17T17:23:11.936Z,16.79
2023-02-17T17:25:41.142Z,16.69
2023-02-17T17:28:08.706Z,16.62
2023-02-17T17:30:35.840Z,16.60
2023-02-17T17:33:02.668Z,16.54
2023-02-17T17:35:30.300Z,16.51
2023-02-17T17:37:58.742Z,16.48
2023-02-17T17:40:31.256Z,16.43
2023-02-17T17:42:58.004Z,16.42
2023-02-17T17:45:25.413Z,16.39
2023-02-17T17:47:52.358Z,16.36
2023-02-17T17:50:23.394Z,16.32
2023-02-17T17:52:50.262Z,16.28
2023-02-17T17:55:17.015Z,16.25
2023-02-17T17:57:43.899Z,16.22
2023-02-17T18:00:14.253Z,16.17
2023-02-17T18:02:43.916Z,16.12
2023-02-17T18:05:13.036Z,16.09
2023-02-17T18:07:42.724Z,16.04
2023-02-17T18:10:11.702Z,16.01
2023-02-17T18:12:38.821Z,15.95
2023-02-17T18:15:07.372Z,15.86
2023-02-17T18:17:37.825Z,15.85
2023-02-17T18:20:05.973Z,15.82
2023-02-17T18:22:32.726Z,15.80
2023-02-17T18:25:00.127Z,15.80
2023-02-17T18:27:26.992Z,15.74
2023-02-17T18:29:57.020Z,15.72
2023-02-17T18:32:24.767Z,15.70
2023-02-17T18:34:51.514Z,15.62
2023-02-17T18:37:18.254Z,15.61
2023-02-17T18:39:45.003Z,15.58
2023-02-17T18:42:11.821Z,15.58
2023-02-17T18:44:38.617Z,15.56
2023-02-17T18:47:05.422Z,15.51
2023-02-17T18:49:32.161Z,15.45
2023-02-17T18:51:58.910Z,15.42
2023-02-17T18:54:25.761Z,15.42
2023-02-17T18:56:52.759Z,15.41
2023-02-17T18:59:19.469Z,15.33
2023-02-17T19:01:46.245Z,15.33
2023-02-17T19:04:13.105Z,15.27
2023-02-17T19:06:40.447Z,15.26
2023-02-17T19:09:07.401Z,15.27
2023-02-17T19:11:34.336Z,15.28
2023-02-17T19:14:01.969Z,15.25
2023-02-17T19:16:30.921Z,15.13
2023-02-17T19:18:58.452Z,15.08
2023-02-17T19:21:25.449Z,15.08
2023-02-17T19:23:52.616Z,15.03
2023-02-17T19:26:20.481Z,14.98
2023-02-17T19:28:47.495Z,14.93
2023-02-17T19:31:18.192Z,14.92
2023-02-17T19:33:45.813Z,14.81
2023-02-17T19:36:16.090Z,14.66
2023-02-17T19:38:43.145Z,14.68
2023-02-17T19:41:11.631Z,14.69
2023-02-17T19:43:38.661Z,14.63
2023-02-17T19:46:05.884Z,14.62
2023-02-17T19:48:33.149Z,14.63
2023-02-17T19:51:06.176Z,14.53
2023-02-17T19:53:34.231Z,14.54
2023-02-17T19:56:17.297Z,14.45
2023-02-17T19:58:45.307Z,14.39
2023-02-17T20:01:22.640Z,14.33
2023-02-17T20:03:49.570Z,14.30
2023-02-17T20:06:23.310Z,14.22
2023-02-17T20:08:59.173Z,14.11
2023-02-17T20:11:26.694Z,14.05
2023-02-17T20:13:53.694Z,14.08
2023-02-17T20:16:20.567Z,14.06
2023-02-17T20:18:49.016Z,14.04
2023-02-17T20:21:21.836Z,14.06
2023-02-17T20:23:48.793Z,14.05
2023-02-17T20:26:25.392Z,14.01
2023-02-17T20:28:52.966Z,13.95
2023-02-17T20:31:20.296Z,13.93
2023-02-17T20:33:47.566Z,13.94
2023-02-17T20:36:14.430Z,13.93
2023-02-17T20:38:41.807Z,13.93
2023-02-17T20:41:13.970Z,13.85
2023-02-17T20:43:40.966Z,13.74
2023-02-17T20:46:10.994Z,13.69
2023-02-17T20:48:38.040Z,13.59
2023-02-17T20:51:05.810Z,13.66
2023-02-17T20:53:32.636Z,13.65
2023-02-17T20:55:59.389Z,13.58
2023-02-17T20:58:26.217Z,13.51
2023-02-17T21:00:52.983Z,13.47
2023-02-17T21:03:19.811Z,13.49
2023-02-17T21:05:46.882Z,13.40
2023-02-17T21:08:13.642Z,13.33
2023-02-17T21:10:40.658Z,13.28
2023-02-17T21:13:07.429Z,13.24
2023-02-17T21:15:34.856Z,13.20
2023-02-17T21:18:01.741Z,13.26
2023-02-17T21:20:28.544Z,13.22
2023-02-17T21:22:55.309Z,13.28
2023-02-17T21:25:22.052Z,13.27
2023-02-17T21:27:48.860Z,13.22
2023-02-17T21:30:15.813Z,13.25
2023-02-17T21:32:42.842Z,13.23
2023-02-17T21:35:11.178Z,13.19
2023-02-17T21:37:39.023Z,13.13
2023-02-17T21:40:10.705Z,12.95
2023-02-17T21:42:56.674Z,12.56
2023-02-17T21:45:24.214Z,12.56
2023-02-17T21:47:51.403Z,12.57
2023-02-17T21:50:19.181Z,12.49
2023-02-17T21:52:45.945Z,12.37
2023-02-17T21:55:12.677Z,12.43
2023-02-17T21:57:39.457Z,12.52
2023-02-17T22:00:07.000Z,12.42
2023-02-17T22:02:39.162Z,12.36
2023-02-17T22:05:07.669Z,12.37
2023-02-17T22:07:35.014Z,12.34
2023-02-17T22:10:02.889Z,12.23
2023-02-17T22:12:29.662Z,12.15
2023-02-17T22:14:57.758Z,12.21
2023-02-17T22:17:24.519Z,12.22
2023-02-17T22:19:51.274Z,12.23
2023-02-17T22:22:18.097Z,12.26
2023-02-17T22:24:44.867Z,12.30
2023-02-17T22:27:11.626Z,12.25
2023-02-17T22:29:38.337Z,12.38
2023-02-17T22:32:05.247Z,12.35
2023-02-17T22:34:32.102Z,12.31
2023-02-17T22:36:58.962Z,12.29
2023-02-17T22:39:25.722Z,12.33
2023-02-17T22:41:52.521Z,12.29
2023-02-17T22:44:19.295Z,12.30
2023-02-17T22:46:46.078Z,12.29
2023-02-17T22:49:12.849Z,12.30
2023-02-17T22:51:40.556Z,12.35
2023-02-17T22:54:08.303Z,12.33
2023-02-17T22:56:35.525Z,12.38
2023-02-17T22:59:03.968Z,12.40
2023-02-17T23:01:34.616Z,12.40
2023-02-17T23:04:02.029Z,12.41
2023-02-17T23:06:31.933Z,12.38
2023-02-17T23:09:00.021Z,12.20
2023-02-17T23:11:49.463Z,12.16
2023-02-17T23:14:30.757Z,12.07
2023-02-17T23:17:01.167Z,12.03
2023-02-17T23:19:29.354Z,11.87
2023-02-17T23:21:59.378Z,11.94
2023-02-17T23:24:27.219Z,11.90
2023-02-17T23:26:56.188Z,11.90
2023-02-17T23:29:23.569Z,11.90
2023-02-17T23:31:50.438Z,11.93
2023-02-17T23:34:17.640Z,11.93
2023-02-17T23:36:45.701Z,11.72
2023-02-17T23:39:16.247Z,11.80
2023-02-17T23:41:43.689Z,11.62
2023-02-17T23:44:11.746Z,11.49
2023-02-17T23:46:39.950Z,11.52
2023-02-17T23:49:06.808Z,11.55
2023-02-17T23:51:33.588Z,11.68
2023-02-17T23:54:00.407Z,11.71
2023-02-17T23:56:32.806Z,11.64
2023-02-17T23:59:00.003Z,11.65
